sensor_id;sensor_type;location;lat;lon;timestamp;pressure;altitude;pressure_sealevel;temperature;humidity
53546;BME280;39432;51.902;10.844;2023-08-07T00:02:29;98794.97;;;15.53;100.00
53546;BME280;39432;51.902;10.844;2023-08-07T00:04:59;98791.13;;;15.40;100.00
53546;BME280;39432;51.902;10.844;2023-08-07T00:07:29;98789.00;;;15.60;100.00
53546;BME280;39432;51.902;10.844;2023-08-07T00:09:59;98785.50;;;15.45;100.00
53546;BME280;39432;51.902;10.844;2023-08-07T00:12:30;98790.22;;;15.31;100.00
53546;BME280;39432;51.902;10.844;2023-08-07T00:15:00;98795.81;;;15.26;100.00
53546;BME280;39432;51.902;10.844;2023-08-07T00:17:33;98791.72;;;15.51;100.00
53546;BME280;39432;51.902;10.844;2023-08-07T00:20:04;98800.09;;;15.32;100.00
53546;BME280;39432;51.902;10.844;2023-08-07T00:22:34;98798.63;;;15.48;100.00
53546;BME280;39432;51.902;10.844;2023-08-07T00:25:05;98794.19;;;15.25;100.00
53546;BME280;39432;51.902;10.844;2023-08-07T00:27:35;98801.66;;;15.11;100.00
53546;BME280;39432;51.902;10.844;2023-08-07T00:30:06;98813.09;;;15.18;100.00
53546;BME280;39432;51.902;10.844;2023-08-07T00:32:39;98805.22;;;15.25;100.00
53546;BME280;39432;51.902;10.844;2023-08-07T00:35:09;98809.13;;;15.24;100.00
53546;BME280;39432;51.902;10.844;2023-08-07T00:37:40;98811.75;;;15.15;100.00
53546;BME280;39432;51.902;10.844;2023-08-07T00:40:10;98817.88;;;14.98;100.00
53546;BME280;39432;51.902;10.844;2023-08-07T00:42:41;98822.59;;;15.12;100.00
53546;BME280;39432;51.902;10.844;2023-08-07T00:45:11;98830.75;;;15.17;100.00
53546;BME280;39432;51.902;10.844;2023-08-07T00:47:44;98836.28;;;15.17;100.00
53546;BME280;39432;51.902;10.844;2023-08-07T00:50:14;98840.34;;;15.19;100.00
53546;BME280;39432;51.902;10.844;2023-08-07T00:52:45;98839.53;;;15.19;100.00
53546;BME280;39432;51.902;10.844;2023-08-07T00:55:15;98840.97;;;15.16;100.00
53546;BME280;39432;51.902;10.844;2023-08-07T00:57:45;98847.69;;;15.10;100.00
53546;BME280;39432;51.902;10.844;2023-08-07T01:00:15;98840.75;;;15.13;100.00
53546;BME280;39432;51.902;10.844;2023-08-07T01:02:51;98840.53;;;15.09;100.00
53546;BME280;39432;51.902;10.844;2023-08-07T01:05:22;98843.81;;;15.11;100.00
53546;BME280;39432;51.902;10.844;2023-08-07T01:07:53;98847.47;;;15.20;100.00
53546;BME280;39432;51.902;10.844;2023-08-07T01:10:29;98852.59;;;15.13;100.00
53546;BME280;39432;51.902;10.844;2023-08-07T01:13:09;98843.50;;;15.13;100.00
53546;BME280;39432;51.902;10.844;2023-08-07T01:15:43;98859.94;;;15.18;100.00
53546;BME280;39432;51.902;10.844;2023-08-07T01:18:18;98865.84;;;15.25;100.00
53546;BME280;39432;51.902;10.844;2023-08-07T01:20:48;98853.28;;;15.33;100.00
53546;BME280;39432;51.902;10.844;2023-08-07T01:23:21;98855.31;;;15.27;100.00
53546;BME280;39432;51.902;10.844;2023-08-07T01:25:51;98848.91;;;15.18;100.00
53546;BME280;39432;51.902;10.844;2023-08-07T01:28:26;98858.50;;;15.20;100.00
53546;BME280;39432;51.902;10.844;2023-08-07T01:31:01;98853.59;;;15.31;100.00
53546;BME280;39432;51.902;10.844;2023-08-07T01:33:39;98856.66;;;15.29;100.00
53546;BME280;39432;51.902;10.844;2023-08-07T01:36:13;98858.81;;;15.19;100.00
53546;BME280;39432;51.902;10.844;2023-08-07T01:38:48;98856.66;;;15.16;100.00
53546;BME280;39432;51.902;10.844;2023-08-07T01:41:20;98865.25;;;15.28;100.00
53546;BME280;39432;51.902;10.844;2023-08-07T01:43:50;98866.16;;;15.37;100.00
53546;BME280;39432;51.902;10.844;2023-08-07T01:46:20;98868.50;;;15.44;100.00
53546;BME280;39432;51.902;10.844;2023-08-07T01:48:51;98853.19;;;15.24;100.00
53546;BME280;39432;51.902;10.844;2023-08-07T01:51:21;98864.00;;;15.20;100.00
53546;BME280;39432;51.902;10.844;2023-08-07T01:53:54;98873.41;;;15.33;100.00
53546;BME280;39432;51.902;10.844;2023-08-07T01:56:23;98868.00;;;15.28;100.00
53546;BME280;39432;51.902;10.844;2023-08-07T01:58:54;98869.25;;;15.22;100.00
53546;BME280;39432;51.902;10.844;2023-08-07T02:01:24;98873.81;;;15.26;100.00
53546;BME280;39432;51.902;10.844;2023-08-07T02:03:54;98861.97;;;15.26;100.00
53546;BME280;39432;51.902;10.844;2023-08-07T02:06:25;98853.00;;;15.34;100.00
53546;BME280;39432;51.902;10.844;2023-08-07T02:08:58;98851.78;;;15.13;100.00
53546;BME280;39432;51.902;10.844;2023-08-07T02:11:27;98854.63;;;15.35;100.00
53546;BME280;39432;51.902;10.844;2023-08-07T02:13:57;98862.41;;;15.33;100.00
53546;BME280;39432;51.902;10.844;2023-08-07T02:16:28;98860.34;;;15.25;100.00
53546;BME280;39432;51.902;10.844;2023-08-07T02:18:58;98858.50;;;15.34;100.00
53546;BME280;39432;51.902;10.844;2023-08-07T02:21:28;98848.72;;;15.28;100.00
53546;BME280;39432;51.902;10.844;2023-08-07T02:24:00;98847.91;;;15.14;100.00
53546;BME280;39432;51.902;10.844;2023-08-07T02:26:31;98847.06;;;15.27;100.00
53546;BME280;39432;51.902;10.844;2023-08-07T02:29:01;98842.00;;;15.07;100.00
53546;BME280;39432;51.902;10.844;2023-08-07T02:31:33;98846.88;;;15.10;100.00
53546;BME280;39432;51.902;10.844;2023-08-07T02:34:03;98842.81;;;15.07;100.00
53546;BME280;39432;51.902;10.844;2023-08-07T02:36:33;98837.28;;;14.93;100.00
53546;BME280;39432;51.902;10.844;2023-08-07T02:39:07;98850.13;;;14.98;100.00
53546;BME280;39432;51.902;10.844;2023-08-07T02:41:37;98854.00;;;15.11;100.00
53546;BME280;39432;51.902;10.844;2023-08-07T02:44:07;98849.13;;;15.08;100.00
53546;BME280;39432;51.902;10.844;2023-08-07T02:46:37;98848.00;;;15.09;100.00
53546;BME280;39432;51.902;10.844;2023-08-07T02:49:07;98848.31;;;15.07;100.00
53546;BME280;39432;51.902;10.844;2023-08-07T02:51:37;98846.88;;;15.10;100.00
53546;BME280;39432;51.902;10.844;2023-08-07T02:54:10;98852.38;;;14.82;100.00
53546;BME280;39432;51.902;10.844;2023-08-07T02:56:40;98856.19;;;15.00;100.00
53546;BME280;39432;51.902;10.844;2023-08-07T02:59:10;98859.66;;;15.06;100.00
53546;BME280;39432;51.902;10.844;2023-08-07T03:01:40;98857.19;;;15.18;100.00
53546;BME280;39432;51.902;10.844;2023-08-07T03:04:11;98850.75;;;15.09;100.00
53546;BME280;39432;51.902;10.844;2023-08-07T03:06:41;98846.16;;;15.04;100.00
53546;BME280;39432;51.902;10.844;2023-08-07T03:09:14;98848.41;;;15.29;100.00
53546;BME280;39432;51.902;10.844;2023-08-07T03:11:44;98843.41;;;15.18;100.00
53546;BME280;39432;51.902;10.844;2023-08-07T03:14:14;98841.19;;;15.06;100.00
53546;BME280;39432;51.902;10.844;2023-08-07T03:16:45;98842.19;;;14.96;100.00
53546;BME280;39432;51.902;10.844;2023-08-07T03:19:15;98850.22;;;14.93;100.00
53546;BME280;39432;51.902;10.844;2023-08-07T03:21:49;98860.53;;;15.15;100.00
53546;BME280;39432;51.902;10.844;2023-08-07T03:24:21;98859.44;;;15.02;100.00
53546;BME280;39432;51.902;10.844;2023-08-07T03:26:52;98849.13;;;15.08;100.00
53546;BME280;39432;51.902;10.844;2023-08-07T03:29:23;98853.19;;;14.96;100.00
53546;BME280;39432;51.902;10.844;2023-08-07T03:46:36;98854.00;;;14.83;100.00
53546;BME280;39432;51.902;10.844;2023-08-07T03:49:06;98861.56;;;14.91;100.00
53546;BME280;39432;51.902;10.844;2023-08-07T03:51:36;98860.13;;;14.80;100.00
53546;BME280;39432;51.902;10.844;2023-08-07T03:54:07;98851.34;;;14.78;100.00
53546;BME280;39432;51.902;10.844;2023-08-07T03:56:37;98856.16;;;14.86;100.00
53546;BME280;39432;51.902;10.844;2023-08-07T03:59:07;98856.16;;;14.86;100.00
53546;BME280;39432;51.902;10.844;2023-08-07T04:01:40;98848.09;;;14.90;100.00
53546;BME280;39432;51.902;10.844;2023-08-07T04:04:10;98845.84;;;14.92;100.00
53546;BME280;39432;51.902;10.844;2023-08-07T04:06:39;98839.53;;;14.91;100.00
53546;BME280;39432;51.902;10.844;2023-08-07T04:09:10;98840.56;;;14.95;100.00
53546;BME280;39432;51.902;10.844;2023-08-07T04:11:40;98838.09;;;14.80;100.00
53546;BME280;39432;51.902;10.844;2023-08-07T04:14:11;98847.28;;;14.89;100.00
53546;BME280;39432;51.902;10.844;2023-08-07T04:16:44;98836.88;;;14.86;100.00
53546;BME280;39432;51.902;10.844;2023-08-07T04:19:14;98842.00;;;15.07;100.00
53546;BME280;39432;51.902;10.844;2023-08-07T04:21:44;98831.88;;;15.02;100.00
53546;BME280;39432;51.902;10.844;2023-08-07T04:24:14;98836.03;;;14.99;100.00
53546;BME280;39432;51.902;10.844;2023-08-07T04:26:44;98829.94;;;15.16;100.00
53546;BME280;39432;51.902;10.844;2023-08-07T04:29:14;98818.09;;;15.16;100.00
53546;BME280;39432;51.902;10.844;2023-08-07T04:31:46;98815.00;;;15.31;100.00
53546;BME280;39432;51.902;10.844;2023-08-07T04:34:16;98806.66;;;15.09;100.00
53546;BME280;39432;51.902;10.844;2023-08-07T04:36:46;98810.56;;;15.08;100.00
53546;BME280;39432;51.902;10.844;2023-08-07T04:39:17;98813.81;;;15.10;100.00
53546;BME280;39432;51.902;10.844;2023-08-07T04:41:47;98817.28;;;15.01;100.00
53546;BME280;39432;51.902;10.844;2023-08-07T04:44:17;98819.72;;;15.03;100.00
53546;BME280;39432;51.902;10.844;2023-08-07T04:46:49;98831.16;;;14.96;100.00
53546;BME280;39432;51.902;10.844;2023-08-07T04:49:20;98829.53;;;15.09;100.00
53546;BME280;39432;51.902;10.844;2023-08-07T04:51:50;98832.78;;;14.97;100.00
53546;BME280;39432;51.902;10.844;2023-08-07T04:54:20;98840.75;;;15.13;100.00
53546;BME280;39432;51.902;10.844;2023-08-07T04:56:49;98838.50;;;15.15;100.00
53546;BME280;39432;51.902;10.844;2023-08-07T04:59:20;98839.22;;;15.20;100.00
53546;BME280;39432;51.902;10.844;2023-08-07T05:01:52;98838.31;;;14.97;100.00
53546;BME280;39432;51.902;10.844;2023-08-07T05:04:23;98839.94;;;14.98;100.00
53546;BME280;39432;51.902;10.844;2023-08-07T05:06:53;98840.97;;;15.02;100.00
53546;BME280;39432;51.902;10.844;2023-08-07T05:09:23;98848.63;;;15.06;100.00
53546;BME280;39432;51.902;10.844;2023-08-07T05:11:52;98846.88;;;15.23;100.00
53546;BME280;39432;51.902;10.844;2023-08-07T05:14:23;98843.59;;;15.35;100.00
53546;BME280;39432;51.902;10.844;2023-08-07T05:16:55;98836.97;;;15.36;100.00
53546;BME280;39432;51.902;10.844;2023-08-07T05:19:26;98826.84;;;15.32;100.00
53546;BME280;39432;51.902;10.844;2023-08-07T05:21:56;98829.19;;;15.38;100.00
53546;BME280;39432;51.902;10.844;2023-08-07T05:24:26;98827.66;;;15.32;100.00
53546;BME280;39432;51.902;10.844;2023-08-07T05:27:01;98830.41;;;15.32;100.00
53546;BME280;39432;51.902;10.844;2023-08-07T05:29:31;98829.59;;;15.45;100.00
53546;BME280;39432;51.902;10.844;2023-08-07T05:32:04;98824.81;;;15.37;100.00
53546;BME280;39432;51.902;10.844;2023-08-07T05:34:34;98822.63;;;15.48;100.00
53546;BME280;39432;51.902;10.844;2023-08-07T05:37:05;98821.28;;;15.73;100.00
53546;BME280;39432;51.902;10.844;2023-08-07T05:39:35;98824.13;;;15.81;100.00
53546;BME280;39432;51.902;10.844;2023-08-07T05:42:06;98811.28;;;16.22;100.00
53546;BME280;39432;51.902;10.844;2023-08-07T05:44:37;98793.41;;;16.19;100.00
53546;BME280;39432;51.902;10.844;2023-08-07T05:47:09;98786.63;;;16.03;100.00
53546;BME280;39432;51.902;10.844;2023-08-07T05:49:40;98782.31;;;15.66;100.00
53546;BME280;39432;51.902;10.844;2023-08-07T05:52:09;98792.53;;;15.51;100.00
53546;BME280;39432;51.902;10.844;2023-08-07T05:54:39;98802.50;;;15.61;100.00
53546;BME280;39432;51.902;10.844;2023-08-07T05:57:10;98808.16;;;15.42;100.00
53546;BME280;39432;51.902;10.844;2023-08-07T05:59:40;98809.06;;;15.38;100.00
53546;BME280;39432;51.902;10.844;2023-08-07T06:02:12;98811.88;;;15.60;100.00
53546;BME280;39432;51.902;10.844;2023-08-07T06:04:42;98812.91;;;15.78;100.00
53546;BME280;39432;51.902;10.844;2023-08-07T06:07:12;98822.75;;;15.57;100.00
53546;BME280;39432;51.902;10.844;2023-08-07T06:09:42;98817.63;;;15.64;100.00
53546;BME280;39432;51.902;10.844;2023-08-07T06:12:13;98813.41;;;15.80;100.00
53546;BME280;39432;51.902;10.844;2023-08-07T06:14:42;98818.91;;;15.80;100.00
53546;BME280;39432;51.902;10.844;2023-08-07T06:17:15;98815.56;;;16.05;100.00
53546;BME280;39432;51.902;10.844;2023-08-07T06:19:45;98814.66;;;15.96;100.00
53546;BME280;39432;51.902;10.844;2023-08-07T06:22:15;98811.03;;;16.10;100.00
53546;BME280;39432;51.902;10.844;2023-08-07T06:24:45;98799.97;;;15.87;100.00
53546;BME280;39432;51.902;10.844;2023-08-07T06:27:15;98803.69;;;15.83;100.00
53546;BME280;39432;51.902;10.844;2023-08-07T06:29:45;98817.63;;;15.64;100.00
53546;BME280;39432;51.902;10.844;2023-08-07T06:32:18;98812.84;;;15.55;100.00
53546;BME280;39432;51.902;10.844;2023-08-07T06:34:48;98817.81;;;15.53;100.00
53546;BME280;39432;51.902;10.844;2023-08-07T06:37:17;98824.78;;;15.65;100.00
53546;BME280;39432;51.902;10.844;2023-08-07T06:39:47;98834.72;;;15.66;100.00
53546;BME280;39432;51.902;10.844;2023-08-07T06:42:17;98834.19;;;15.64;100.00
53546;BME280;39432;51.902;10.844;2023-08-07T06:44:47;98844.50;;;15.72;100.00
53546;BME280;39432;51.902;10.844;2023-08-07T06:47:20;98836.59;;;15.79;100.00
53546;BME280;39432;51.902;10.844;2023-08-07T06:49:50;98844.59;;;15.67;100.00
53546;BME280;39432;51.902;10.844;2023-08-07T06:52:20;98837.75;;;16.00;100.00
53546;BME280;39432;51.902;10.844;2023-08-07T06:54:50;98846.09;;;16.09;100.00
53546;BME280;39432;51.902;10.844;2023-08-07T06:57:19;98856.03;;;15.74;100.00
53546;BME280;39432;51.902;10.844;2023-08-07T06:59:49;98861.16;;;15.67;100.00
53546;BME280;39432;51.902;10.844;2023-08-07T07:02:22;98863.28;;;15.70;100.00
53546;BME280;39432;51.902;10.844;2023-08-07T07:04:52;98868.59;;;15.52;100.00
53546;BME280;39432;51.902;10.844;2023-08-07T07:07:22;98863.81;;;15.72;100.00
53546;BME280;39432;51.902;10.844;2023-08-07T07:09:52;98868.50;;;15.71;100.00
53546;BME280;39432;51.902;10.844;2023-08-07T07:12:24;98864.19;;;15.79;100.00
53546;BME280;39432;51.902;10.844;2023-08-07T07:14:54;98860.09;;;16.13;100.00
53546;BME280;39432;51.902;10.844;2023-08-07T07:17:27;98855.22;;;16.32;100.00
53546;BME280;39432;51.902;10.844;2023-08-07T07:19:57;98849.69;;;16.63;100.00
53546;BME280;39432;51.902;10.844;2023-08-07T07:22:27;98823.25;;;16.93;100.00
53546;BME280;39432;51.902;10.844;2023-08-07T07:24:58;98818.31;;;17.30;100.00
53546;BME280;39432;51.902;10.844;2023-08-07T07:27:28;98802.06;;;17.37;100.00
53546;BME280;39432;51.902;10.844;2023-08-07T07:29:58;98794.34;;;17.08;100.00
53546;BME280;39432;51.902;10.844;2023-08-07T07:32:33;98793.47;;;16.90;100.00
53546;BME280;39432;51.902;10.844;2023-08-07T07:35:04;98792.63;;;16.81;100.00
53546;BME280;39432;51.902;10.844;2023-08-07T07:37:34;98796.56;;;16.97;100.00
53546;BME280;39432;51.902;10.844;2023-08-07T07:40:05;98804.81;;;16.80;100.00
53546;BME280;39432;51.902;10.844;2023-08-07T07:42:35;98799.00;;;16.90;100.00
53546;BME280;39432;51.902;10.844;2023-08-07T07:45:06;98805.09;;;17.18;100.00
53546;BME280;39432;51.902;10.844;2023-08-07T07:47:39;98817.47;;;17.21;100.00
53546;BME280;39432;51.902;10.844;2023-08-07T07:50:10;98815.69;;;17.25;100.00
53546;BME280;39432;51.902;10.844;2023-08-07T07:52:41;98804.81;;;16.80;100.00
53546;BME280;39432;51.902;10.844;2023-08-07T07:55:11;98811.59;;;16.74;100.00
53546;BME280;39432;51.902;10.844;2023-08-07T07:57:41;98837.59;;;16.73;100.00
53546;BME280;39432;51.902;10.844;2023-08-07T08:00:13;98828.00;;;16.48;100.00
53546;BME280;39432;51.902;10.844;2023-08-07T08:02:46;98847.47;;;16.20;100.00
53546;BME280;39432;51.902;10.844;2023-08-07T08:05:16;98855.81;;;16.29;100.00
53546;BME280;39432;51.902;10.844;2023-08-07T08:07:46;98848.47;;;16.24;100.00
53546;BME280;39432;51.902;10.844;2023-08-07T08:10:16;98859.97;;;16.40;100.00
53546;BME280;39432;51.902;10.844;2023-08-07T08:12:46;98858.50;;;17.36;100.00
53546;BME280;39432;51.902;10.844;2023-08-07T08:15:16;98834.72;;;17.75;100.00
53546;BME280;39432;51.902;10.844;2023-08-07T08:17:49;98811.91;;;18.04;100.00
53546;BME280;39432;51.902;10.844;2023-08-07T08:20:19;98803.38;;;18.35;100.00
53546;BME280;39432;51.902;10.844;2023-08-07T08:22:49;98798.13;;;18.59;100.00
53546;BME280;39432;51.902;10.844;2023-08-07T08:25:19;98796.09;;;17.96;100.00
53546;BME280;39432;51.902;10.844;2023-08-07T08:27:49;98792.03;;;18.10;100.00
53546;BME280;39432;51.902;10.844;2023-08-07T08:30:19;98790.50;;;18.48;100.00
53546;BME280;39432;51.902;10.844;2023-08-07T08:32:52;98793.78;;;18.24;100.00
53546;BME280;39432;51.902;10.844;2023-08-07T08:35:22;98802.97;;;17.81;100.00
53546;BME280;39432;51.902;10.844;2023-08-07T08:37:52;98806.22;;;18.00;100.00
53546;BME280;39432;51.902;10.844;2023-08-07T08:40:23;98821.34;;;17.94;100.00
53546;BME280;39432;51.902;10.844;2023-08-07T08:42:55;98831.69;;;17.45;100.00
53546;BME280;39432;51.902;10.844;2023-08-07T08:45:27;98828.88;;;17.28;100.00
53546;BME280;39432;51.902;10.844;2023-08-07T08:48:01;98829.53;;;17.33;100.00
53546;BME280;39432;51.902;10.844;2023-08-07T08:50:32;98832.66;;;17.58;100.00
53546;BME280;39432;51.902;10.844;2023-08-07T08:53:03;98826.47;;;17.52;100.00
53546;BME280;39432;51.902;10.844;2023-08-07T08:55:37;98841.22;;;17.30;100.00
53546;BME280;39432;51.902;10.844;2023-08-07T08:58:09;98823.69;;;17.35;100.00
53546;BME280;39432;51.902;10.844;2023-08-07T09:00:40;98844.00;;;17.22;100.00
53546;BME280;39432;51.902;10.844;2023-08-07T09:03:13;98860.31;;;17.01;100.00
53546;BME280;39432;51.902;10.844;2023-08-07T09:05:43;98871.69;;;17.39;100.00
53546;BME280;39432;51.902;10.844;2023-08-07T09:08:15;98864.69;;;16.93;100.00
53546;BME280;39432;51.902;10.844;2023-08-07T09:10:45;98857.47;;;17.23;100.00
53546;BME280;39432;51.902;10.844;2023-08-07T09:13:18;98862.50;;;17.70;100.00
53546;BME280;39432;51.902;10.844;2023-08-07T09:15:51;98838.41;;;17.70;100.00
53546;BME280;39432;51.902;10.844;2023-08-07T09:18:24;98835.94;;;17.69;100.00
53546;BME280;39432;51.902;10.844;2023-08-07T09:20:54;98833.56;;;17.76;100.00
53546;BME280;39432;51.902;10.844;2023-08-07T09:23:25;98842.28;;;17.60;100.00
53546;BME280;39432;51.902;10.844;2023-08-07T09:26:03;98856.63;;;16.74;100.00
53546;BME280;39432;51.902;10.844;2023-08-07T09:28:35;98878.69;;;16.43;100.00
53546;BME280;39432;51.902;10.844;2023-08-07T09:31:06;98899.53;;;15.77;100.00
53546;BME280;39432;51.902;10.844;2023-08-07T09:33:39;98915.97;;;15.82;100.00
53546;BME280;39432;51.902;10.844;2023-08-07T09:36:08;98924.00;;;15.92;100.00
53546;BME280;39432;51.902;10.844;2023-08-07T09:38:38;98937.59;;;16.02;100.00
53546;BME280;39432;51.902;10.844;2023-08-07T09:41:08;98941.63;;;16.55;100.00
53546;BME280;39432;51.902;10.844;2023-08-07T09:43:38;98945.50;;;17.30;100.00
53546;BME280;39432;51.902;10.844;2023-08-07T09:46:08;98931.06;;;17.02;100.00
53546;BME280;39432;51.902;10.844;2023-08-07T09:48:44;98932.53;;;16.77;100.00
53546;BME280;39432;51.902;10.844;2023-08-07T09:51:14;98933.63;;;16.53;100.00
53546;BME280;39432;51.902;10.844;2023-08-07T09:53:44;98935.97;;;16.60;100.00
53546;BME280;39432;51.902;10.844;2023-08-07T09:56:16;98937.47;;;16.66;100.00
53546;BME280;39432;51.902;10.844;2023-08-07T09:58:47;98936.53;;;16.48;100.00
53546;BME280;39432;51.902;10.844;2023-08-07T10:01:17;98932.13;;;16.70;100.00
53546;BME280;39432;51.902;10.844;2023-08-07T10:03:50;98944.97;;;16.88;100.00
53546;BME280;39432;51.902;10.844;2023-08-07T10:06:20;98932.72;;;16.80;100.00
53546;BME280;39432;51.902;10.844;2023-08-07T10:08:51;98924.47;;;16.89;100.00
53546;BME280;39432;51.902;10.844;2023-08-07T10:11:21;98933.34;;;17.08;100.00
53546;BME280;39432;51.902;10.844;2023-08-07T10:13:51;98931.47;;;17.18;100.00
53546;BME280;39432;51.902;10.844;2023-08-07T10:16:26;98913.66;;;17.41;100.00
53546;BME280;39432;51.902;10.844;2023-08-07T10:18:59;98904.25;;;17.42;100.00
53546;BME280;39432;51.902;10.844;2023-08-07T10:21:29;98894.00;;;17.51;100.00
53546;BME280;39432;51.902;10.844;2023-08-07T10:24:00;98899.19;;;18.01;100.00
53546;BME280;39432;51.902;10.844;2023-08-07T10:26:43;98902.53;;;17.24;100.00
53546;BME280;39432;51.902;10.844;2023-08-07T10:29:18;98915.06;;;16.90;100.00
53546;BME280;39432;51.902;10.844;2023-08-07T10:31:51;98927.97;;;16.72;100.00
53546;BME280;39432;51.902;10.844;2023-08-07T10:34:28;98935.78;;;16.56;100.00
53546;BME280;39432;51.902;10.844;2023-08-07T10:36:58;98942.34;;;16.69;100.00
53546;BME280;39432;51.902;10.844;2023-08-07T10:40:01;98954.03;;;17.42;100.00
53546;BME280;39432;51.902;10.844;2023-08-07T10:42:56;98950.25;;;17.38;100.00
53546;BME280;39432;51.902;10.844;2023-08-07T10:45:27;98978.75;;;16.85;100.00
53546;BME280;39432;51.902;10.844;2023-08-07T10:48:02;98984.47;;;15.20;100.00
53546;BME280;39432;51.902;10.844;2023-08-07T10:50:35;99002.16;;;14.48;100.00
53546;BME280;39432;51.902;10.844;2023-08-07T10:53:19;99009.66;;;14.43;100.00
53546;BME280;39432;51.902;10.844;2023-08-07T10:55:49;99018.09;;;14.52;100.00
53546;BME280;39432;51.902;10.844;2023-08-07T10:58:29;99024.25;;;14.81;100.00
53546;BME280;39432;51.902;10.844;2023-08-07T11:01:15;99015.44;;;15.44;100.00
53546;BME280;39432;51.902;10.844;2023-08-07T11:03:49;99009.97;;;15.72;100.00
53546;BME280;39432;51.902;10.844;2023-08-07T11:06:27;99008.00;;;16.14;100.00
53546;BME280;39432;51.902;10.844;2023-08-07T11:08:58;99016.75;;;16.43;100.00
53546;BME280;39432;51.902;10.844;2023-08-07T11:11:35;99008.88;;;16.73;100.00
53546;BME280;39432;51.902;10.844;2023-08-07T11:14:08;99004.44;;;16.49;100.00
53546;BME280;39432;51.902;10.844;2023-08-07T11:16:38;98990.59;;;17.08;100.00
53546;BME280;39432;51.902;10.844;2023-08-07T11:19:08;98981.75;;;17.59;100.00
53546;BME280;39432;51.902;10.844;2023-08-07T11:21:41;98976.03;;;17.96;100.00
53546;BME280;39432;51.902;10.844;2023-08-07T11:24:13;98955.22;;;18.15;100.00
53546;BME280;39432;51.902;10.844;2023-08-07T11:26:44;98937.09;;;17.83;100.00
53546;BME280;39432;51.902;10.844;2023-08-07T11:29:16;98940.75;;;17.53;100.00
53546;BME280;39432;51.902;10.844;2023-08-07T11:31:46;98943.72;;;17.25;100.00
53546;BME280;39432;51.902;10.844;2023-08-07T11:34:17;98961.81;;;16.78;100.00
53546;BME280;39432;51.902;10.844;2023-08-07T11:36:49;98974.06;;;16.49;100.00
53546;BME280;39432;51.902;10.844;2023-08-07T11:39:22;98973.78;;;16.37;100.00
53546;BME280;39432;51.902;10.844;2023-08-07T11:41:53;98984.50;;;16.75;100.00
53546;BME280;39432;51.902;10.844;2023-08-07T11:44:23;98977.13;;;16.84;100.00
53546;BME280;39432;51.902;10.844;2023-08-07T11:46:56;98986.03;;;16.81;100.00
53546;BME280;39432;51.902;10.844;2023-08-07T11:49:26;98981.19;;;16.86;100.00
53546;BME280;39432;51.902;10.844;2023-08-07T11:51:59;98958.13;;;16.69;100.00
53546;BME280;39432;51.902;10.844;2023-08-07T11:54:29;98954.75;;;16.94;100.00
53546;BME280;39432;51.902;10.844;2023-08-07T11:56:59;98962.75;;;17.27;100.00
53546;BME280;39432;51.902;10.844;2023-08-07T11:59:29;98959.31;;;17.30;100.00
53546;BME280;39432;51.902;10.844;2023-08-07T12:01:59;98949.06;;;17.22;100.00
53546;BME280;39432;51.902;10.844;2023-08-07T12:04:38;98945.16;;;17.23;100.00
53546;BME280;39432;51.902;10.844;2023-08-07T12:07:10;98962.38;;;17.20;100.00
53546;BME280;39432;51.902;10.844;2023-08-07T12:09:41;98943.81;;;16.67;100.00
53546;BME280;39432;51.902;10.844;2023-08-07T12:12:11;98973.78;;;16.37;100.00
53546;BME280;39432;51.902;10.844;2023-08-07T12:14:41;98968.56;;;15.99;100.00
53546;BME280;39432;51.902;10.844;2023-08-07T12:17:11;98980.00;;;16.06;100.00
53546;BME280;39432;51.902;10.844;2023-08-07T12:19:41;98985.69;;;16.24;100.00
53546;BME280;39432;51.902;10.844;2023-08-07T12:22:19;98989.47;;;16.28;100.00
53546;BME280;39432;51.902;10.844;2023-08-07T12:24:49;98982.97;;;16.46;100.00
53546;BME280;39432;51.902;10.844;2023-08-07T12:27:20;98972.88;;;16.86;100.00
53546;BME280;39432;51.902;10.844;2023-08-07T12:29:50;98954.66;;;17.08;100.00
53546;BME280;39432;51.902;10.844;2023-08-07T12:32:20;98950.19;;;17.21;100.00
53546;BME280;39432;51.902;10.844;2023-08-07T12:34:50;98941.50;;;17.13;100.00
53546;BME280;39432;51.902;10.844;2023-08-07T12:37:26;98930.25;;;17.41;100.00
53546;BME280;39432;51.902;10.844;2023-08-07T12:39:56;98918.78;;;17.17;100.00
53546;BME280;39432;51.902;10.844;2023-08-07T12:42:29;98899.69;;;17.46;100.00
53546;BME280;39432;51.902;10.844;2023-08-07T12:44:59;98912.44;;;17.16;100.00
53546;BME280;39432;51.902;10.844;2023-08-07T12:47:29;98916.00;;;17.17;100.00
53546;BME280;39432;51.902;10.844;2023-08-07T12:49:59;98912.69;;;17.37;100.00
53546;BME280;39432;51.902;10.844;2023-08-07T12:52:32;98906.41;;;17.62;100.00
53546;BME280;39432;51.902;10.844;2023-08-07T12:55:03;98905.50;;;17.76;100.00
53546;BME280;39432;51.902;10.844;2023-08-07T12:57:34;98910.75;;;17.86;100.00
53546;BME280;39432;51.902;10.844;2023-08-07T13:00:05;98900.16;;;17.88;100.00
53546;BME280;39432;51.902;10.844;2023-08-07T13:02:38;98906.38;;;18.20;100.00
53546;BME280;39432;51.902;10.844;2023-08-07T13:05:09;98912.88;;;18.24;100.00
53546;BME280;39432;51.902;10.844;2023-08-07T13:07:42;98935.63;;;17.37;100.00
53546;BME280;39432;51.902;10.844;2023-08-07T13:10:14;98949.34;;;16.67;100.00
53546;BME280;39432;51.902;10.844;2023-08-07T13:12:45;98991.63;;;16.53;100.00
53546;BME280;39432;51.902;10.844;2023-08-07T13:15:17;99007.03;;;16.68;100.00
53546;BME280;39432;51.902;10.844;2023-08-07T13:17:47;99012.13;;;16.75;100.00